createdAt,value
2022-10-07T00:01:57.475Z,11.76
2022-10-07T00:04:28.237Z,11.67
2022-10-07T00:06:57.312Z,11.63
2022-10-07T00:09:26.437Z,11.56
2022-10-07T00:11:55.763Z,11.44
2022-10-07T00:14:24.871Z,11.39
2022-10-07T00:16:53.870Z,11.57
2022-10-07T00:19:23.400Z,11.68
2022-10-07T00:21:53.757Z,11.85
2022-10-07T00:24:23.156Z,12.13
2022-10-07T00:26:52.258Z,12.33
2022-10-07T00:29:25.043Z,12.39
2022-10-07T00:31:57.204Z,12.32
2022-10-07T00:34:27.546Z,12.29
2022-10-07T00:36:58.004Z,12.45
2022-10-07T00:39:27.075Z,12.47
2022-10-07T00:41:56.699Z,12.45
2022-10-07T00:44:44.214Z,12.29
2022-10-07T00:47:21.725Z,12.00
2022-10-07T00:49:55.520Z,11.84
2022-10-07T00:52:30.318Z,11.58
2022-10-07T00:55:02.306Z,11.46
2022-10-07T00:57:34.575Z,11.45
2022-10-07T01:00:05.324Z,11.43
2022-10-07T01:02:35.884Z,11.28
2022-10-07T01:05:09.368Z,11.19
2022-10-07T01:07:40.225Z,11.07
2022-10-07T01:10:12.661Z,11.20
2022-10-07T01:12:55.174Z,11.20
2022-10-07T01:15:34.077Z,11.11
2022-10-07T01:18:11.393Z,10.79
2022-10-07T01:20:46.843Z,10.86
2022-10-07T01:23:29.434Z,10.86
2022-10-07T01:26:20.695Z,10.85
2022-10-07T01:28:55.552Z,10.65
2022-10-07T01:31:29.385Z,10.61
2022-10-07T01:34:01.779Z,10.50
2022-10-07T01:36:32.713Z,10.56
2022-10-07T01:39:06.661Z,10.52
2022-10-07T01:41:38.649Z,10.30
2022-10-07T01:44:10.410Z,10.48
2022-10-07T01:46:39.732Z,10.58
2022-10-07T01:49:10.330Z,10.47
2022-10-07T01:51:55.137Z,10.33
2022-10-07T01:54:34.605Z,10.11
2022-10-07T01:57:16.182Z,10.20
2022-10-07T02:00:06.756Z,10.16
2022-10-07T02:03:00.182Z,10.05
2022-10-07T02:05:40.147Z,10.01
2022-10-07T02:08:23.582Z,9.78
2022-10-07T02:11:16.068Z,10.02
2022-10-07T02:14:01.050Z,9.89
2022-10-07T02:16:38.562Z,9.83
2022-10-07T02:19:12.184Z,9.95
2022-10-07T02:21:44.499Z,9.67
2022-10-07T02:24:16.807Z,9.49
2022-10-07T02:26:48.443Z,9.93
2022-10-07T02:29:21.901Z,10.02
2022-10-07T02:36:54.747Z,9.46
2022-10-07T02:39:24.426Z,9.70
2022-10-07T02:42:06.052Z,9.57
2022-10-07T02:44:41.721Z,9.66
2022-10-07T02:47:16.626Z,9.52
2022-10-07T02:49:50.392Z,9.53
2022-10-07T02:52:23.370Z,9.49
2022-10-07T02:54:59.750Z,9.54
2022-10-07T02:57:36.102Z,9.57
2022-10-07T03:00:11.134Z,9.48
2022-10-07T03:02:54.085Z,9.49
2022-10-07T03:05:27.623Z,9.51
2022-10-07T03:08:05.915Z,9.57
2022-10-07T03:10:36.008Z,9.39
2022-10-07T03:13:06.017Z,9.32
2022-10-07T03:15:42.487Z,9.41
2022-10-07T03:18:28.425Z,9.40
2022-10-07T03:21:09.831Z,9.41
2022-10-07T03:23:40.615Z,9.36
2022-10-07T03:26:09.996Z,9.33
2022-10-07T03:28:39.527Z,9.47
2022-10-07T03:31:11.927Z,9.48
2022-10-07T03:33:46.739Z,9.61
2022-10-07T03:36:16.109Z,9.57
2022-10-07T03:38:49.240Z,9.51
2022-10-07T03:41:19.136Z,9.64
2022-10-07T03:43:51.543Z,9.63
2022-10-07T03:46:24.177Z,9.55
2022-10-07T03:48:54.204Z,9.56
2022-10-07T03:51:23.889Z,9.57
2022-10-07T03:53:57.422Z,9.48
2022-10-07T03:56:28.965Z,9.64
2022-10-07T03:58:58.032Z,9.80
2022-10-07T04:01:31.692Z,9.74
2022-10-07T04:04:02.525Z,9.73
2022-10-07T04:06:36.338Z,9.61
2022-10-07T04:09:10.409Z,9.40
2022-10-07T04:11:41.755Z,9.30
2022-10-07T04:14:11.806Z,9.31
2022-10-07T04:16:43.261Z,9.40
2022-10-07T04:19:14.988Z,9.41
2022-10-07T04:21:45.233Z,9.43
2022-10-07T04:24:15.805Z,9.50
2022-10-07T04:26:44.906Z,9.41
2022-10-07T04:29:16.246Z,9.45
2022-10-07T04:31:45.558Z,9.29
2022-10-07T04:34:15.987Z,9.18
2022-10-07T04:36:45.595Z,9.29
2022-10-07T04:39:21.013Z,9.20
2022-10-07T04:41:56.083Z,9.08
2022-10-07T04:44:30.284Z,9.22
2022-10-07T04:47:07.169Z,9.02
2022-10-07T04:49:39.226Z,9.14
2022-10-07T04:52:10.822Z,9.37
2022-10-07T04:54:44.143Z,9.54
2022-10-07T04:57:13.809Z,9.40
2022-10-07T04:59:44.711Z,9.53
2022-10-07T05:02:17.901Z,9.43
2022-10-07T05:04:48.398Z,9.50
2022-10-07T05:07:18.467Z,9.61
2022-10-07T05:09:49.637Z,9.71
2022-10-07T05:12:18.896Z,9.82
2022-10-07T05:14:48.747Z,9.64
2022-10-07T05:17:19.249Z,9.57
2022-10-07T05:19:49.052Z,9.64
2022-10-07T05:22:18.149Z,9.57
2022-10-07T05:24:48.570Z,9.73
2022-10-07T05:27:18.008Z,9.69
2022-10-07T05:29:47.176Z,10.05
2022-10-07T05:32:16.426Z,10.27
2022-10-07T05:34:45.925Z,10.31
2022-10-07T05:37:15.239Z,10.30
2022-10-07T05:39:44.679Z,10.48
2022-10-07T05:42:20.890Z,10.54
2022-10-07T05:44:56.918Z,10.81
2022-10-07T05:47:27.159Z,10.84
2022-10-07T05:49:58.780Z,10.81
2022-10-07T05:52:29.196Z,10.97
2022-10-07T05:54:58.541Z,11.09
2022-10-07T05:57:30.249Z,11.17
2022-10-07T06:00:01.912Z,11.47
2022-10-07T06:02:32.792Z,11.57
2022-10-07T06:05:02.354Z,11.83
2022-10-07T06:07:32.373Z,11.70
2022-10-07T06:10:19.745Z,11.96
2022-10-07T06:13:09.483Z,11.70
2022-10-07T06:15:41.583Z,11.93
2022-10-07T06:18:11.262Z,12.26
2022-10-07T06:20:40.858Z,12.19
2022-10-07T06:23:10.075Z,12.45
2022-10-07T06:25:39.077Z,12.71
2022-10-07T06:28:09.941Z,12.71
2022-10-07T06:30:39.892Z,12.65
2022-10-07T06:33:09.309Z,12.65
2022-10-07T06:35:38.399Z,12.81
2022-10-07T06:38:07.938Z,12.88
2022-10-07T06:40:37.331Z,12.70
2022-10-07T06:43:08.305Z,12.91
2022-10-07T06:45:44.353Z,12.97
2022-10-07T06:48:16.378Z,13.31
2022-10-07T06:50:52.228Z,13.68
2022-10-07T06:53:23.065Z,13.79
2022-10-07T06:55:54.667Z,13.82
2022-10-07T06:58:26.087Z,14.11
2022-10-07T07:00:57.065Z,14.23
2022-10-07T07:03:26.810Z,14.08
2022-10-07T07:05:58.014Z,13.95
2022-10-07T07:08:32.830Z,14.77
2022-10-07T07:11:25.991Z,14.35
2022-10-07T07:13:57.405Z,14.21
2022-10-07T07:16:28.443Z,14.27
2022-10-07T07:18:59.484Z,14.49
2022-10-07T07:21:29.082Z,14.48
2022-10-07T07:23:59.001Z,14.70
2022-10-07T07:26:28.862Z,14.89
2022-10-07T07:29:03.253Z,14.82
2022-10-07T07:31:38.865Z,14.77
2022-10-07T07:34:12.400Z,15.06
2022-10-07T07:36:46.081Z,15.35
2022-10-07T07:39:18.692Z,15.60
2022-10-07T07:41:54.011Z,15.74
2022-10-07T07:44:30.068Z,15.93
2022-10-07T07:47:03.001Z,15.70
2022-10-07T07:49:34.186Z,15.56
2022-10-07T07:52:04.334Z,15.52
2022-10-07T07:54:39.822Z,15.91
2022-10-07T07:57:09.577Z,15.90
2022-10-07T07:59:40.412Z,15.98
2022-10-07T08:02:13.313Z,16.04
2022-10-07T08:04:46.133Z,16.10
2022-10-07T08:07:15.908Z,16.17
2022-10-07T08:09:48.180Z,16.46
2022-10-07T08:12:17.678Z,16.16
2022-10-07T08:14:48.891Z,16.20
2022-10-07T08:17:19.324Z,16.26
2022-10-07T08:19:48.502Z,16.50
2022-10-07T08:22:17.984Z,16.50
2022-10-07T08:24:50.324Z,16.67
2022-10-07T08:27:22.002Z,16.41
2022-10-07T08:29:52.523Z,16.32
2022-10-07T08:32:23.222Z,16.70
2022-10-07T08:34:52.601Z,16.67
2022-10-07T08:37:22.147Z,16.70
2022-10-07T08:39:51.735Z,16.67
2022-10-07T08:42:28.858Z,16.72
2022-10-07T08:45:00.720Z,16.88
2022-10-07T08:47:34.810Z,16.92
2022-10-07T08:50:09.852Z,16.83
2022-10-07T08:52:51.140Z,17.19
2022-10-07T08:55:28.383Z,17.13
2022-10-07T08:58:16.354Z,17.06
2022-10-07T09:00:52.047Z,17.25
2022-10-07T09:03:26.010Z,17.33
2022-10-07T09:05:57.169Z,17.86
2022-10-07T09:08:30.026Z,17.55
2022-10-07T09:11:15.942Z,17.88
2022-10-07T09:13:49.232Z,17.97
2022-10-07T09:16:26.273Z,17.76
2022-10-07T09:18:58.995Z,18.73
2022-10-07T09:21:37.042Z,18.50
2022-10-07T09:24:19.988Z,18.01
2022-10-07T09:26:50.317Z,18.03
2022-10-07T09:29:22.676Z,18.28
2022-10-07T09:31:54.098Z,18.53
2022-10-07T09:34:25.542Z,18.84
2022-10-07T09:37:26.680Z,18.68
2022-10-07T09:39:58.427Z,19.15
2022-10-07T09:42:35.281Z,19.37
2022-10-07T09:45:18.972Z,18.98
2022-10-07T09:47:53.714Z,18.80
2022-10-07T09:50:36.547Z,19.12
2022-10-07T09:53:07.359Z,18.86
2022-10-07T09:55:42.307Z,18.74
2022-10-07T09:58:20.341Z,19.83
2022-10-07T10:00:51.168Z,20.08
2022-10-07T10:03:23.012Z,20.43
2022-10-07T10:05:57.535Z,21.11
2022-10-07T10:08:30.103Z,21.94
2022-10-07T10:11:01.461Z,22.72
2022-10-07T10:13:34.294Z,22.35
2022-10-07T10:16:05.023Z,23.47
2022-10-07T10:18:56.063Z,23.82
2022-10-07T10:21:30.286Z,23.60
2022-10-07T10:24:01.626Z,24.52
2022-10-07T10:26:50.851Z,24.20
2022-10-07T10:29:38.462Z,24.50
2022-10-07T10:32:48.803Z,24.13
2022-10-07T10:35:25.022Z,26.21
2022-10-07T10:38:16.708Z,27.58
2022-10-07T10:40:57.588Z,26.02
2022-10-07T10:43:32.799Z,24.45
2022-10-07T10:46:28.835Z,26.28
2022-10-07T10:49:09.486Z,24.80
2022-10-07T10:51:53.348Z,26.10
2022-10-07T10:54:30.297Z,24.85
2022-10-07T10:57:05.451Z,27.43
2022-10-07T11:00:01.064Z,26.16
2022-10-07T11:03:15.361Z,25.20
2022-10-07T11:05:45.548Z,26.78
2022-10-07T11:08:24.140Z,26.41
2022-10-07T11:10:59.856Z,27.20
2022-10-07T11:13:33.774Z,29.49
2022-10-07T11:16:09.446Z,27.07
2022-10-07T11:18:45.903Z,27.92
2022-10-07T11:21:21.570Z,26.17
2022-10-07T11:23:58.416Z,25.91
2022-10-07T11:26:34.823Z,26.43
2022-10-07T11:29:16.185Z,26.92
2022-10-07T11:31:51.356Z,26.48
2022-10-07T11:34:24.195Z,27.30
2022-10-07T11:36:58.828Z,26.73
2022-10-07T11:39:30.018Z,26.76
2022-10-07T11:42:05.035Z,27.95
2022-10-07T11:44:42.139Z,27.26
2022-10-07T11:47:19.721Z,27.13
2022-10-07T11:49:57.991Z,27.39
2022-10-07T11:52:32.171Z,27.42
2022-10-07T11:55:08.796Z,27.39
2022-10-07T11:57:43.412Z,28.54
2022-10-07T12:00:26.261Z,29.09
2022-10-07T12:02:56.388Z,28.43
2022-10-07T12:05:56.054Z,28.26
2022-10-07T12:08:33.985Z,28.34
2022-10-07T12:11:43.023Z,27.50
2022-10-07T12:14:41.324Z,27.89
2022-10-07T12:17:30.461Z,27.56
2022-10-07T12:20:37.287Z,29.53
2022-10-07T12:23:40.928Z,31.44
2022-10-07T12:26:48.232Z,30.03
2022-10-07T12:29:51.038Z,30.11
2022-10-07T12:32:56.375Z,30.01
2022-10-07T12:35:43.564Z,29.20
2022-10-07T12:38:16.767Z,28.98
2022-10-07T12:40:51.201Z,29.80
2022-10-07T12:43:32.428Z,30.01
2022-10-07T12:46:06.494Z,30.03
2022-10-07T12:48:41.557Z,29.25
2022-10-07T12:51:19.464Z,29.66
2022-10-07T12:53:52.108Z,29.04
2022-10-07T12:56:26.570Z,28.80
2022-10-07T12:59:39.401Z,28.77
2022-10-07T13:02:44.380Z,32.46
2022-10-07T13:05:45.229Z,28.45
2022-10-07T13:08:52.463Z,29.63
2022-10-07T13:11:52.761Z,29.40
2022-10-07T13:14:28.790Z,27.08
2022-10-07T13:17:06.007Z,27.51
2022-10-07T13:19:47.104Z,27.12
2022-10-07T13:22:18.040Z,29.13
2022-10-07T13:24:51.105Z,29.53
2022-10-07T13:27:24.818Z,29.19
2022-10-07T13:29:54.480Z,31.13
2022-10-07T13:32:25.613Z,30.23
2022-10-07T13:34:57.527Z,30.87
2022-10-07T13:37:32.234Z,28.62
2022-10-07T13:40:20.771Z,27.99
2022-10-07T13:42:55.654Z,28.81
2022-10-07T13:45:25.507Z,27.81
2022-10-07T13:47:55.923Z,29.99
2022-10-07T13:50:29.209Z,29.27
2022-10-07T13:52:58.771Z,28.35
2022-10-07T13:55:32.197Z,28.11
2022-10-07T13:58:04.431Z,29.31
2022-10-07T14:00:35.448Z,29.86
2022-10-07T14:03:13.350Z,28.27
2022-10-07T14:05:52.003Z,28.87
2022-10-07T14:08:23.543Z,27.15
2022-10-07T14:10:57.673Z,27.37
2022-10-07T14:13:29.031Z,28.53
2022-10-07T14:16:00.242Z,28.26
2022-10-07T14:18:31.419Z,28.68
2022-10-07T14:21:16.667Z,27.64
2022-10-07T14:23:47.877Z,28.14
2022-10-07T14:26:18.135Z,27.97
2022-10-07T14:28:47.601Z,27.22
2022-10-07T14:31:38.603Z,26.63
2022-10-07T14:34:32.611Z,25.99
2022-10-07T14:37:05.408Z,26.62
2022-10-07T14:39:37.453Z,26.75
2022-10-07T14:42:11.781Z,25.15
2022-10-07T14:44:44.268Z,23.87
2022-10-07T14:47:16.031Z,24.53
2022-10-07T14:49:45.435Z,24.49
2022-10-07T14:52:28.219Z,23.48
2022-10-07T14:54:59.671Z,24.39
2022-10-07T14:57:29.141Z,24.12
2022-10-07T14:59:58.423Z,24.74
2022-10-07T15:02:28.572Z,23.71
2022-10-07T15:04:57.588Z,24.09
2022-10-07T15:07:28.096Z,24.39
2022-10-07T15:09:57.347Z,24.65
2022-10-07T15:12:27.966Z,24.26
2022-10-07T15:14:56.967Z,24.20
2022-10-07T15:17:26.180Z,24.70
2022-10-07T15:19:55.381Z,25.09
2022-10-07T15:22:24.721Z,23.79
2022-10-07T15:24:55.375Z,23.99
2022-10-07T15:27:24.851Z,23.14
2022-10-07T15:29:55.401Z,22.87
2022-10-07T15:32:25.321Z,21.32
2022-10-07T15:34:55.238Z,20.55
2022-10-07T15:37:25.151Z,19.76
2022-10-07T15:39:55.775Z,19.29
2022-10-07T15:42:26.311Z,18.90
2022-10-07T15:44:55.686Z,18.84
2022-10-07T15:47:24.847Z,18.75
2022-10-07T15:49:54.099Z,18.66
2022-10-07T15:52:23.111Z,18.54
2022-10-07T15:54:52.403Z,18.21
2022-10-07T15:57:24.396Z,18.04
2022-10-07T15:59:54.861Z,17.85
2022-10-07T16:02:24.867Z,17.71
2022-10-07T16:04:54.199Z,17.55
2022-10-07T16:07:24.043Z,17.24
2022-10-07T16:09:53.020Z,17.11
2022-10-07T16:12:23.630Z,17.15
2022-10-07T16:14:53.137Z,17.24
2022-10-07T16:17:22.320Z,17.07
2022-10-07T16:19:51.582Z,16.83
2022-10-07T16:22:20.738Z,16.73
2022-10-07T16:24:50.197Z,16.57
2022-10-07T16:27:19.402Z,16.52
2022-10-07T16:30:07.661Z,16.36
2022-10-07T16:32:36.992Z,16.10
2022-10-07T16:35:06.694Z,15.96
2022-10-07T16:37:35.938Z,15.56
2022-10-07T16:40:05.269Z,15.51
2022-10-07T16:42:34.256Z,15.31
2022-10-07T16:45:05.891Z,15.18
2022-10-07T16:47:34.995Z,14.96
2022-10-07T16:50:07.586Z,14.80
2022-10-07T16:52:39.649Z,14.82
2022-10-07T16:55:10.041Z,14.52
2022-10-07T16:57:39.015Z,14.42
2022-10-07T17:00:11.555Z,14.40
2022-10-07T17:02:40.588Z,14.28
2022-10-07T17:05:11.176Z,14.30
2022-10-07T17:07:40.160Z,13.97
2022-10-07T17:10:10.667Z,14.06
2022-10-07T17:12:39.638Z,14.09
2022-10-07T17:15:10.228Z,14.06
2022-10-07T17:17:39.524Z,13.89
2022-10-07T17:20:10.226Z,13.76
2022-10-07T17:22:39.256Z,13.68
2022-10-07T17:25:09.148Z,13.58
2022-10-07T17:27:38.195Z,13.51
2022-10-07T17:30:10.430Z,13.40
2022-10-07T17:32:39.752Z,13.39
2022-10-07T17:35:09.761Z,13.29
2022-10-07T17:37:38.892Z,13.26
2022-10-07T17:40:08.913Z,13.30
2022-10-07T17:42:37.916Z,13.23
2022-10-07T17:45:10.482Z,13.15
2022-10-07T17:47:39.934Z,13.07
2022-10-07T17:50:09.750Z,12.90
2022-10-07T17:52:39.425Z,12.71
2022-10-07T17:55:12.668Z,12.73
2022-10-07T17:57:42.084Z,12.64
2022-10-07T18:00:13.502Z,12.62
2022-10-07T18:02:42.810Z,12.57
2022-10-07T18:05:12.055Z,12.58
2022-10-07T18:07:42.665Z,12.53
2022-10-07T18:10:11.847Z,12.48
2022-10-07T18:12:58.674Z,12.48
2022-10-07T18:15:29.402Z,12.27
2022-10-07T18:17:58.480Z,12.26
2022-10-07T18:20:28.558Z,12.09
2022-10-07T18:22:58.764Z,12.13
2022-10-07T18:25:28.102Z,12.02
2022-10-07T18:27:57.139Z,11.91
2022-10-07T18:30:26.556Z,11.99
2022-10-07T18:32:57.050Z,12.07
2022-10-07T18:35:26.126Z,11.90
2022-10-07T18:37:55.435Z,11.93
2022-10-07T18:40:24.458Z,11.86
2022-10-07T18:42:53.694Z,11.89
2022-10-07T18:45:23.379Z,11.90
2022-10-07T18:47:52.729Z,11.72
2022-10-07T18:50:24.006Z,11.80
2022-10-07T18:52:53.266Z,11.88
2022-10-07T18:55:22.517Z,11.81
2022-10-07T18:57:51.829Z,11.90
2022-10-07T19:00:20.891Z,11.87
2022-10-07T19:02:51.587Z,11.93
2022-10-07T19:05:22.286Z,11.82
2022-10-07T19:07:51.559Z,11.85
2022-10-07T19:10:20.557Z,11.91
2022-10-07T19:13:07.992Z,11.72
2022-10-07T19:15:38.264Z,11.68
2022-10-07T19:18:07.793Z,11.59
2022-10-07T19:20:42.649Z,11.35
2022-10-07T19:23:11.852Z,11.38
2022-10-07T19:25:48.918Z,11.52
2022-10-07T19:28:21.484Z,11.68
2022-10-07T19:30:50.767Z,11.38
2022-10-07T19:33:20.288Z,11.55
2022-10-07T19:35:55.579Z,11.47
2022-10-07T19:38:25.013Z,11.39
2022-10-07T19:40:57.275Z,11.20
2022-10-07T19:43:26.637Z,11.26
2022-10-07T19:46:01.454Z,11.18
2022-10-07T19:48:32.565Z,11.10
2022-10-07T19:51:04.884Z,11.20
2022-10-07T19:53:35.781Z,11.14
2022-10-07T19:56:06.660Z,11.03
2022-10-07T19:58:36.151Z,10.84
2022-10-07T20:01:06.919Z,10.69
2022-10-07T20:03:36.606Z,10.68
2022-10-07T20:06:09.125Z,10.61
2022-10-07T20:08:39.840Z,10.44
2022-10-07T20:11:10.383Z,10.38
2022-10-07T20:13:40.740Z,10.47
2022-10-07T20:16:12.827Z,10.55
2022-10-07T20:18:42.301Z,10.40
2022-10-07T20:21:17.180Z,10.37
2022-10-07T20:23:48.285Z,10.32
2022-10-07T20:26:19.837Z,10.28
2022-10-07T20:28:51.886Z,10.30
2022-10-07T20:31:23.877Z,10.27
2022-10-07T20:33:55.185Z,10.21
2022-10-07T20:36:27.280Z,10.22
2022-10-07T20:39:14.508Z,10.01
2022-10-07T20:42:07.482Z,9.76
2022-10-07T20:44:37.680Z,9.84
2022-10-07T20:47:07.791Z,9.82
2022-10-07T20:49:38.812Z,9.83
2022-10-07T20:52:13.237Z,9.87
2022-10-07T20:54:42.696Z,9.96
2022-10-07T20:57:14.104Z,9.79
2022-10-07T20:59:43.876Z,9.73
2022-10-07T21:02:13.954Z,9.68
2022-10-07T21:04:43.217Z,9.65
2022-10-07T21:07:14.466Z,9.56
2022-10-07T21:09:43.828Z,9.56
2022-10-07T21:12:15.777Z,9.55
2022-10-07T21:14:47.934Z,9.54
2022-10-07T21:17:17.787Z,9.46
2022-10-07T21:19:46.985Z,9.36
2022-10-07T21:22:17.808Z,9.37
2022-10-07T21:24:47.141Z,9.35
2022-10-07T21:27:16.185Z,9.25
2022-10-07T21:29:48.604Z,9.18
2022-10-07T21:32:18.769Z,9.16
2022-10-07T21:34:48.051Z,9.17
2022-10-07T21:37:18.565Z,9.22
2022-10-07T21:39:47.788Z,9.11
2022-10-07T21:42:17.147Z,9.12
2022-10-07T21:44:47.362Z,9.00
2022-10-07T21:47:16.614Z,8.99
2022-10-07T21:49:45.709Z,9.01
2022-10-07T21:52:15.129Z,9.00
2022-10-07T21:54:45.720Z,9.06
2022-10-07T21:57:14.921Z,8.96
2022-10-07T21:59:43.988Z,8.99
2022-10-07T22:02:13.909Z,8.97
2022-10-07T22:04:43.093Z,9.03
2022-10-07T22:07:30.661Z,8.97
2022-10-07T22:10:01.389Z,8.96
2022-10-07T22:12:30.491Z,8.92
2022-10-07T22:14:59.763Z,9.01
2022-10-07T22:17:28.772Z,8.79
2022-10-07T22:19:58.840Z,8.69
2022-10-07T22:22:28.550Z,8.69
2022-10-07T22:24:57.539Z,8.67
2022-10-07T22:27:28.264Z,8.68
2022-10-07T22:29:58.711Z,8.63
2022-10-07T22:32:28.281Z,8.67
2022-10-07T22:35:14.719Z,8.56
2022-10-07T22:37:45.009Z,8.57
2022-10-07T22:40:14.011Z,8.65
2022-10-07T22:42:48.017Z,8.58
2022-10-07T22:45:19.262Z,8.55
2022-10-07T22:47:51.191Z,8.55
2022-10-07T22:50:20.527Z,8.50
2022-10-07T22:52:50.086Z,8.46
2022-10-07T22:55:21.480Z,8.45
2022-10-07T22:57:53.220Z,8.46
2022-10-07T23:00:22.422Z,8.47
2022-10-07T23:02:54.247Z,8.40
2022-10-07T23:05:23.579Z,8.46
2022-10-07T23:07:52.845Z,8.38
2022-10-07T23:10:23.371Z,8.32
2022-10-07T23:12:53.899Z,8.39
2022-10-07T23:15:23.114Z,8.35
2022-10-07T23:17:52.279Z,8.41
2022-10-07T23:20:25.301Z,8.36
2022-10-07T23:22:54.497Z,8.40
2022-10-07T23:25:26.354Z,8.42
2022-10-07T23:27:56.992Z,8.38
2022-10-07T23:30:26.063Z,8.43
2022-10-07T23:32:56.239Z,8.41
2022-10-07T23:35:25.591Z,8.35
2022-10-07T23:37:56.382Z,8.35
2022-10-07T23:40:25.497Z,8.31
2022-10-07T23:42:56.065Z,8.24
2022-10-07T23:45:25.084Z,8.22
2022-10-07T23:47:54.189Z,8.27
2022-10-07T23:50:23.518Z,8.12
2022-10-07T23:52:52.621Z,8.23
2022-10-07T23:55:21.951Z,8.17
2022-10-07T23:57:51.187Z,8.18
